Time;durP1;ratioP1;P1;durP2;ratioP2;P2;SDS_P1;SDS_P2;PMS_P1;PMS_P2;Temp;Humidity;BMP_temperature;BMP_pressure;BME280_temperature;BME280_humidity;BME280_pressure;Samples;Min_cycle;Max_cycle;Signal;HPM_P1;HPM_P2
2023/07/09 00:01:56;;;;;;;4.88;3.58;;;19.50;66.00;19.40;101037.00;;;;4946105;28;97498;-66
2023/07/09 00:04:22;;;;;;;3.13;2.83;;;19.40;66.40;19.40;101039.00;;;;4948686;28;122748;-66
2023/07/09 00:06:48;;;;;;;4.20;3.20;;;19.20;66.70;19.30;101039.00;;;;4955585;28;122469;-67
2023/07/09 00:09:16;;;;;;;5.03;3.42;;;19.20;67.10;19.20;101049.00;;;;4969853;28;93008;-67
2023/07/09 00:11:44;;;;;;;4.65;3.55;;;19.10;67.50;19.10;101044.00;;;;4956688;28;99237;-67
2023/07/09 00:14:12;;;;;;;8.40;3.40;;;19.00;67.90;19.00;101045.00;;;;4967693;28;101183;-67
2023/07/09 00:16:40;;;;;;;3.40;3.03;;;19.00;68.20;19.00;101051.00;;;;4969373;28;111139;-66
2023/07/09 00:19:17;;;;;;;4.35;3.38;;;18.90;68.50;18.90;101042.00;;;;4970492;28;93195;-66
2023/07/09 00:21:45;;;;;;;4.55;3.42;;;18.90;68.80;18.90;101037.00;;;;4971070;28;92855;-66
2023/07/09 00:24:14;;;;;;;5.47;3.60;;;18.80;69.10;18.70;101033.00;;;;4953044;28;94846;-66
2023/07/09 00:26:40;;;;;;;4.25;3.17;;;18.70;69.60;18.60;101038.00;;;;4969548;28;92902;-66
2023/07/09 00:29:12;;;;;;;4.82;3.50;;;18.60;70.00;18.50;101039.00;;;;4969066;28;111120;-65
2023/07/09 00:31:40;;;;;;;3.40;3.20;;;18.50;70.50;18.50;101035.00;;;;4966112;28;95672;-65
2023/07/09 00:34:11;;;;;;;4.78;3.47;;;18.40;71.00;18.40;101036.00;;;;4969617;28;94065;-65
2023/07/09 00:36:37;;;;;;;4.03;3.45;;;18.30;71.20;18.40;101031.00;;;;4967693;28;93010;-65
2023/07/09 00:39:07;;;;;;;3.70;3.40;;;18.30;71.50;18.40;101028.00;;;;4968936;28;111328;-67
2023/07/09 00:41:36;;;;;;;5.88;3.72;;;18.30;72.00;18.30;101021.00;;;;4970771;28;92950;-66
2023/07/09 00:44:25;;;;;;;4.55;3.80;;;18.30;72.60;18.20;101022.00;;;;4949131;28;93246;-66
2023/07/09 00:46:51;;;;;;;3.78;3.15;;;18.20;73.30;18.20;101020.00;;;;4952197;28;94442;-66
2023/07/09 00:49:34;;;;;;;3.63;3.33;;;18.10;73.70;18.10;101016.00;;;;4966582;28;94753;-65
2023/07/09 00:52:10;;;;;;;4.22;3.80;;;18.00;74.30;18.00;101021.00;;;;4968866;28;92889;-66
2023/07/09 00:54:41;;;;;;;4.20;3.38;;;17.90;74.60;18.00;101025.00;;;;4948541;28;114861;-66
2023/07/09 00:57:21;;;;;;;4.22;3.30;;;17.90;75.10;18.00;101014.00;;;;4967268;28;94070;-68
2023/07/09 01:00:00;;;;;;;4.28;3.60;;;17.90;75.50;18.00;101025.00;;;;4945808;28;93009;-66
2023/07/09 01:02:26;;;;;;;5.15;4.15;;;17.90;75.80;17.90;101017.00;;;;4968052;28;93447;-66
2023/07/09 01:05:00;;;;;;;4.95;4.03;;;17.90;76.00;18.00;101016.00;;;;4969586;28;121055;-66
2023/07/09 01:07:27;;;;;;;3.50;3.15;;;17.80;76.40;17.90;101018.00;;;;4953106;28;92976;-66
2023/07/09 01:09:53;;;;;;;3.85;3.53;;;17.80;76.70;17.90;101018.00;;;;4965730;28;94518;-66
2023/07/09 01:12:20;;;;;;;6.57;4.00;;;17.80;77.20;17.90;101023.00;;;;4969935;28;93142;-66
2023/07/09 01:14:51;;;;;;;4.90;4.35;;;17.80;78.40;17.80;101018.00;;;;4967147;28;98272;-65
2023/07/09 01:17:22;;;;;;;4.65;4.10;;;17.70;78.00;17.80;101017.00;;;;4957860;28;93062;-66
2023/07/09 01:19:50;;;;;;;6.00;3.38;;;17.70;78.60;17.70;101009.00;;;;4967497;28;109914;-65
2023/07/09 01:22:20;;;;;;;6.63;4.53;;;17.60;78.80;17.70;101016.00;;;;4966450;28;94162;-66
2023/07/09 01:25:01;;;;;;;5.38;3.63;;;17.60;79.00;17.70;101014.00;;;;4967088;28;93978;-65
2023/07/09 01:27:33;;;;;;;4.53;3.20;;;17.70;79.30;17.80;101008.00;;;;4968719;28;93580;-65
2023/07/09 01:30:00;;;;;;;3.55;3.22;;;17.60;79.50;17.70;101015.00;;;;4969671;28;92862;-65
2023/07/09 01:32:27;;;;;;;6.28;3.72;;;17.70;79.90;17.70;101004.00;;;;4968375;28;92940;-66
2023/07/09 01:35:04;;;;;;;5.63;4.15;;;17.60;80.10;17.70;101010.00;;;;4965167;28;94090;-66
2023/07/09 01:37:31;;;;;;;6.25;4.55;;;17.60;80.50;17.70;101008.00;;;;4957881;28;93059;-66
2023/07/09 01:39:57;;;;;;;5.65;4.40;;;17.50;80.70;17.60;101009.00;;;;4965379;28;92053;-65
2023/07/09 01:42:25;;;;;;;5.38;3.55;;;17.50;81.00;17.60;101005.00;;;;4967784;28;107002;-66
2023/07/09 01:44:54;;;;;;;4.38;3.97;;;17.50;81.30;17.60;101006.00;;;;4966477;28;105583;-65
2023/07/09 01:47:20;;;;;;;4.35;3.30;;;17.50;81.50;17.60;101001.00;;;;4966810;28;95840;-66
2023/07/09 01:49:46;;;;;;;5.85;5.18;;;17.50;81.80;17.60;101004.00;;;;4965950;28;103622;-65
2023/07/09 01:52:16;;;;;;;4.35;3.53;;;17.50;82.20;17.60;101008.00;;;;4967408;28;93203;-65
2023/07/09 01:54:46;;;;;;;3.95;3.55;;;17.50;82.70;17.50;101007.00;;;;4943400;28;93808;-65
2023/07/09 01:57:22;;;;;;;9.70;4.22;;;17.50;83.10;17.50;101002.00;;;;4968054;28;93696;-66
2023/07/09 01:59:50;;;;;;;3.97;3.55;;;17.40;83.50;17.50;101010.00;;;;4965370;28;93268;-66
2023/07/09 02:02:19;;;;;;;4.18;3.42;;;17.40;83.90;17.50;101007.00;;;;4972446;28;93230;-65
2023/07/09 02:04:52;;;;;;;5.63;3.40;;;17.40;84.30;17.40;101005.00;;;;4972453;28;93454;-66
2023/07/09 02:07:20;;;;;;;4.35;3.95;;;17.30;85.00;17.30;101008.00;;;;4954323;28;113313;-66
2023/07/09 02:09:52;;;;;;;4.53;2.97;;;17.30;85.60;17.20;101006.00;;;;4970687;28;92887;-65
2023/07/09 02:12:21;;;;;;;6.38;4.25;;;17.20;86.40;17.20;101004.00;;;;4954295;28;93884;-65
2023/07/09 02:14:46;;;;;;;6.72;3.83;;;17.10;86.80;17.10;101014.00;;;;4971783;28;92841;-66
2023/07/09 02:17:16;;;;;;;6.22;3.83;;;17.10;87.20;17.10;101014.00;;;;4968032;28;121804;-65
2023/07/09 02:19:43;;;;;;;4.60;4.20;;;17.00;87.50;17.10;101008.00;;;;4973461;28;92866;-65
2023/07/09 02:22:10;;;;;;;3.70;3.40;;;17.00;87.80;17.00;101018.00;;;;4968338;28;92635;-65
2023/07/09 02:24:36;;;;;;;6.93;4.25;;;17.00;88.20;17.00;101014.00;;;;4970090;28;93378;-66
2023/07/09 02:27:05;;;;;;;5.82;4.55;;;16.90;88.40;17.00;101018.00;;;;4964318;28;93673;-66
2023/07/09 02:29:32;;;;;;;5.57;3.63;;;16.90;89.00;16.90;101019.00;;;;4968240;28;98379;-65
2023/07/09 02:31:58;;;;;;;6.80;4.53;;;16.90;89.40;16.90;101015.00;;;;4969461;28;92916;-66
2023/07/09 02:34:29;;;;;;;6.28;3.70;;;16.80;89.90;16.80;101027.00;;;;4969870;28;94130;-65
2023/07/09 02:36:57;;;;;;;5.13;3.83;;;16.70;90.10;16.80;101025.00;;;;4972515;28;94083;-66
2023/07/09 02:39:23;;;;;;;6.20;4.40;;;16.70;90.30;16.70;101026.00;;;;4970669;28;92840;-65
2023/07/09 02:41:49;;;;;;;7.85;4.70;;;16.60;90.60;16.60;101026.00;;;;4970081;28;105682;-66
2023/07/09 02:44:16;;;;;;;6.07;5.07;;;16.60;90.80;16.60;101023.00;;;;4968076;28;97113;-66
2023/07/09 02:46:42;;;;;;;4.82;3.75;;;16.50;91.00;16.50;101017.00;;;;4968161;28;93261;-66
2023/07/09 02:49:12;;;;;;;5.07;3.67;;;16.50;91.20;16.50;101028.00;;;;4970238;28;93481;-66
2023/07/09 02:51:38;;;;;;;4.93;4.45;;;16.40;91.50;16.40;101024.00;;;;4972954;28;93009;-66
2023/07/09 02:54:04;;;;;;;6.35;4.32;;;16.40;91.70;16.40;101032.00;;;;4969522;28;122276;-66
2023/07/09 02:56:30;;;;;;;5.43;4.88;;;16.30;91.90;16.30;101035.00;;;;4972358;28;105066;-66
2023/07/09 02:58:56;;;;;;;5.45;4.25;;;16.30;92.20;16.30;101038.00;;;;4969510;28;109384;-65
2023/07/09 03:01:24;;;;;;;5.30;3.83;;;16.20;92.30;16.30;101035.00;;;;4974122;28;93595;-66
2023/07/09 03:03:54;;;;;;;5.40;4.50;;;16.20;92.50;16.30;101039.00;;;;4969023;28;93864;-65
2023/07/09 03:06:24;;;;;;;4.60;3.78;;;16.20;92.60;16.20;101044.00;;;;4966552;28;93957;-65
2023/07/09 03:08:51;;;;;;;4.47;4.00;;;16.10;92.80;16.20;101045.00;;;;4953451;28;93489;-65
2023/07/09 03:11:18;;;;;;;6.00;4.13;;;16.10;93.00;16.10;101040.00;;;;4969737;28;93005;-66
2023/07/09 03:13:47;;;;;;;4.57;3.72;;;16.10;93.20;16.10;101043.00;;;;4972356;28;93080;-66
2023/07/09 03:16:13;;;;;;;5.38;4.05;;;16.00;93.30;16.00;101046.00;;;;4967780;28;115459;-66
2023/07/09 03:18:39;;;;;;;5.10;4.60;;;16.00;93.50;16.00;101047.00;;;;4953387;28;92350;-66
2023/07/09 03:21:05;;;;;;;4.43;4.03;;;15.90;93.70;16.00;101049.00;;;;4968306;28;98655;-66
2023/07/09 03:23:31;;;;;;;4.38;3.85;;;15.90;93.90;16.00;101048.00;;;;4951963;28;97581;-65
2023/07/09 03:25:57;;;;;;;5.15;4.00;;;15.90;94.10;16.00;101049.00;;;;4970212;28;122188;-66
2023/07/09 03:28:23;;;;;;;4.50;3.78;;;15.90;94.20;16.00;101047.00;;;;4968815;28;110362;-66
2023/07/09 03:30:52;;;;;;;5.75;3.90;;;15.90;94.40;16.00;101050.00;;;;4969076;28;93067;-65
2023/07/09 03:33:18;;;;;;;4.78;3.88;;;15.90;94.50;16.00;101056.00;;;;4970150;28;93556;-65
2023/07/09 03:35:44;;;;;;;6.78;4.57;;;15.90;94.60;16.00;101060.00;;;;4968447;28;122455;-65
2023/07/09 03:38:11;;;;;;;4.70;4.03;;;15.80;94.80;16.00;101066.00;;;;4983022;28;110253;-65
2023/07/09 03:40:37;;;;;;;4.43;4.07;;;15.90;95.00;16.00;101061.00;;;;4970178;28;93019;-65
2023/07/09 03:43:08;;;;;;;4.78;4.20;;;15.90;95.20;16.00;101060.00;;;;4971655;28;92793;-66
2023/07/09 03:45:35;;;;;;;5.13;4.63;;;16.00;95.30;16.10;101070.00;;;;4969410;28;111411;-66
2023/07/09 03:48:01;;;;;;;3.88;3.58;;;16.00;95.30;16.20;101071.00;;;;4970163;28;93117;-66
2023/07/09 03:50:27;;;;;;;5.07;3.88;;;16.00;95.40;16.20;101079.00;;;;4959081;28;99585;-66
2023/07/09 03:52:53;;;;;;;5.35;4.85;;;16.10;95.60;16.30;101070.00;;;;4966359;28;123935;-66
2023/07/09 03:55:19;;;;;;;6.32;4.30;;;16.10;95.60;16.30;101073.00;;;;4967550;28;120883;-66
2023/07/09 03:57:44;;;;;;;5.93;4.30;;;16.20;95.70;16.40;101074.00;;;;4969451;28;92877;-66
2023/07/09 04:00:11;;;;;;;4.80;3.95;;;16.30;95.90;16.50;101070.00;;;;4973460;28;109024;-66
2023/07/09 04:02:39;;;;;;;3.95;3.63;;;16.30;95.70;16.60;101084.00;;;;4969335;28;107149;-66
2023/07/09 04:05:08;;;;;;;3.88;3.55;;;16.40;95.70;16.70;101067.00;;;;4966891;28;115155;-66
2023/07/09 04:07:35;;;;;;;5.97;4.45;;;16.50;95.70;16.80;101078.00;;;;4971108;28;101269;-67
2023/07/09 04:10:00;;;;;;;5.70;4.15;;;16.60;95.80;16.80;101073.00;;;;4969295;28;100991;-66
2023/07/09 04:12:26;;;;;;;9.27;4.13;;;16.70;95.80;17.00;101067.00;;;;4967317;28;123918;-66
2023/07/09 04:14:52;;;;;;;4.35;3.80;;;16.80;95.80;17.00;101074.00;;;;4967178;28;121791;-66
2023/07/09 04:17:17;;;;;;;4.47;4.07;;;16.90;95.80;17.20;101078.00;;;;4968376;28;110464;-66
2023/07/09 04:19:43;;;;;;;4.32;3.67;;;17.00;95.80;17.30;101068.00;;;;4967472;28;93013;-66
2023/07/09 04:22:11;;;;;;;5.28;4.50;;;17.10;95.80;17.40;101079.00;;;;4965677;28;123330;-66
2023/07/09 04:24:36;;;;;;;5.00;3.92;;;17.20;95.80;17.50;101079.00;;;;4967189;28;124213;-66
2023/07/09 04:27:02;;;;;;;4.25;3.85;;;17.30;95.70;17.60;101083.00;;;;4964491;28;110225;-67
2023/07/09 04:29:35;;;;;;;4.47;3.65;;;17.40;95.60;17.70;101085.00;;;;4968435;28;93263;-67
2023/07/09 04:32:06;;;;;;;5.13;3.95;;;17.50;95.50;17.90;101086.00;;;;4968343;28;92464;-67
2023/07/09 04:34:32;;;;;;;5.15;4.15;;;17.60;95.40;18.00;101082.00;;;;4965123;28;109376;-67
2023/07/09 04:36:58;;;;;;;4.40;3.65;;;17.80;95.30;18.20;101086.00;;;;4968254;28;110505;-67
2023/07/09 04:39:24;;;;;;;7.18;4.47;;;18.00;95.10;18.30;101084.00;;;;4965419;28;95180;-67
2023/07/09 04:41:49;;;;;;;4.43;4.05;;;18.10;94.90;18.50;101089.00;;;;4967562;28;122391;-68
2023/07/09 04:44:15;;;;;;;7.55;3.90;;;18.30;94.70;18.70;101085.00;;;;4968354;28;113024;-66
2023/07/09 04:46:41;;;;;;;4.45;3.00;;;18.50;94.50;18.90;101089.00;;;;4969752;28;104891;-67
2023/07/09 04:49:06;;;;;;;6.22;4.32;;;18.60;94.30;19.00;101092.00;;;;4967870;28;110042;-67
2023/07/09 04:51:33;;;;;;;4.57;3.47;;;18.80;94.00;19.20;101092.00;;;;4965477;28;121792;-66
2023/07/09 04:54:03;;;;;;;3.65;3.28;;;18.90;93.80;19.30;101091.00;;;;4970509;28;92893;-66
2023/07/09 04:56:29;;;;;;;6.90;3.53;;;19.10;93.50;19.50;101093.00;;;;4970522;28;92208;-67
2023/07/09 04:58:56;;;;;;;7.93;3.33;;;19.30;93.30;19.70;101096.00;;;;4967120;28;100975;-67
2023/07/09 05:01:21;;;;;;;6.18;3.38;;;19.40;93.00;19.80;101095.00;;;;4966581;28;99931;-67
2023/07/09 05:03:47;;;;;;;2.83;2.63;;;19.60;92.50;19.90;101085.00;;;;4965902;28;94499;-67
2023/07/09 05:06:13;;;;;;;4.25;3.80;;;19.70;92.40;20.00;101103.00;;;;4967929;28;110684;-67
2023/07/09 05:08:39;;;;;;;7.68;3.55;;;19.80;92.20;20.20;101099.00;;;;4949355;28;107907;-67
2023/07/09 05:11:05;;;;;;;5.43;4.03;;;19.90;92.00;20.30;101101.00;;;;4950221;28;121723;-68
2023/07/09 05:13:30;;;;;;;9.18;3.10;;;20.00;91.70;20.40;101101.00;;;;4945449;28;123314;-67
2023/07/09 05:15:56;;;;;;;4.82;3.42;;;20.10;91.60;20.50;101103.00;;;;4947349;28;110615;-67
2023/07/09 05:18:22;;;;;;;4.90;3.17;;;20.30;91.40;20.50;101095.00;;;;4946442;28;100089;-68
2023/07/09 05:20:48;;;;;;;9.95;4.78;;;20.30;91.20;20.60;101099.00;;;;4946735;28;92009;-67
2023/07/09 05:23:13;;;;;;;5.78;3.60;;;20.40;91.00;20.70;101090.00;;;;4946377;28;95902;-67
2023/07/09 05:25:39;;;;;;;3.97;3.47;;;20.30;90.70;20.70;101103.00;;;;4945576;28;109050;-67
2023/07/09 05:28:05;;;;;;;4.63;3.38;;;20.50;90.70;20.80;101089.00;;;;4944645;28;105356;-67
2023/07/09 05:30:32;;;;;;;3.83;3.50;;;20.60;90.90;20.90;101095.00;;;;4950952;28;93234;-67
2023/07/09 05:32:59;;;;;;;4.70;3.17;;;20.70;90.40;21.10;101094.00;;;;4929005;28;93735;-67
2023/07/09 05:35:26;;;;;;;5.68;3.67;;;20.80;90.20;21.20;101106.00;;;;4949288;28;92842;-67
2023/07/09 05:37:53;;;;;;;4.22;3.58;;;21.00;90.00;21.40;101105.00;;;;4931461;28;92904;-67
2023/07/09 05:40:19;;;;;;;4.22;2.85;;;21.10;89.60;21.60;101100.00;;;;4943859;28;93339;-67
2023/07/09 05:42:44;;;;;;;4.15;3.65;;;21.30;88.70;21.70;101104.00;;;;4944888;28;122425;-67
2023/07/09 05:45:11;;;;;;;4.30;3.20;;;21.40;87.30;21.90;101111.00;;;;4946279;28;109679;-67
2023/07/09 05:47:36;;;;;;;2.72;2.42;;;21.60;86.70;22.10;101120.00;;;;4950759;28;94149;-67
2023/07/09 05:50:03;;;;;;;3.08;2.78;;;21.80;85.90;22.30;101112.00;;;;4948834;28;123108;-67
2023/07/09 05:52:29;;;;;;;3.35;3.05;;;22.00;85.00;22.50;101114.00;;;;4946613;28;99726;-67
2023/07/09 05:54:55;;;;;;;4.15;3.58;;;22.20;84.00;22.70;101122.00;;;;4947636;28;93003;-67
2023/07/09 05:57:22;;;;;;;5.00;3.20;;;22.40;83.40;22.90;101112.00;;;;4939983;28;93070;-67
2023/07/09 05:59:47;;;;;;;5.95;3.53;;;22.60;82.50;23.10;101114.00;;;;4940316;28;93803;-67
2023/07/09 06:02:16;;;;;;;3.90;3.40;;;22.80;81.60;23.30;101118.00;;;;4940435;28;114299;-67
2023/07/09 06:04:42;;;;;;;4.93;3.42;;;23.00;81.20;23.60;101118.00;;;;4928613;28;92858;-67
2023/07/09 06:07:09;;;;;;;4.22;3.83;;;23.20;80.80;23.80;101124.00;;;;4949828;28;108297;-68
2023/07/09 06:09:35;;;;;;;3.80;3.50;;;23.40;79.70;24.00;101113.00;;;;4947429;28;114542;-68
2023/07/09 06:12:03;;;;;;;3.50;3.17;;;23.70;78.70;24.20;101116.00;;;;4962409;28;92984;-68
2023/07/09 06:14:30;;;;;;;5.35;3.00;;;23.90;78.50;24.30;101115.00;;;;4965464;28;92880;-69
2023/07/09 06:16:56;;;;;;;4.63;4.20;;;24.00;77.00;24.50;101121.00;;;;4945630;28;94202;-69
2023/07/09 06:19:22;;;;;;;3.58;3.28;;;24.10;76.60;24.60;101117.00;;;;4962524;28;124439;-69
2023/07/09 06:21:47;;;;;;;3.88;2.88;;;24.30;76.30;24.90;101118.00;;;;4964666;28;121276;-67
2023/07/09 06:24:13;;;;;;;4.13;3.47;;;24.50;76.00;25.10;101118.00;;;;4960213;28;111872;-67
2023/07/09 06:26:39;;;;;;;4.57;3.20;;;24.80;75.60;25.40;101110.00;;;;4962813;28;109233;-67
2023/07/09 06:29:05;;;;;;;6.80;3.10;;;25.10;74.90;25.70;101113.00;;;;4958383;28;123834;-68
2023/07/09 06:31:31;;;;;;;12.40;3.03;;;25.30;73.90;26.00;101119.00;;;;4960829;28;123298;-68
2023/07/09 06:33:57;;;;;;;5.70;3.42;;;25.60;73.30;26.20;101117.00;;;;4963417;28;92286;-67
2023/07/09 06:36:23;;;;;;;3.80;2.65;;;25.90;72.40;26.50;101125.00;;;;4962078;28;108518;-68
2023/07/09 06:38:49;;;;;;;3.92;3.05;;;26.10;71.40;26.70;101131.00;;;;4959121;28;121172;-65
2023/07/09 06:41:16;;;;;;;6.00;3.17;;;26.40;70.50;26.90;101121.00;;;;4961221;28;105470;-69
2023/07/09 06:43:42;;;;;;;4.40;2.83;;;26.60;69.50;27.20;101130.00;;;;4943737;28;93466;-68
2023/07/09 06:46:12;;;;;;;5.05;3.25;;;26.80;68.60;27.40;101127.00;;;;4966200;28;95848;-68
2023/07/09 06:48:38;;;;;;;4.20;3.45;;;27.10;67.30;27.60;101125.00;;;;4967843;28;114040;-68
2023/07/09 06:51:04;;;;;;;4.03;2.70;;;27.30;66.80;27.90;101124.00;;;;4964296;28;120703;-66
2023/07/09 06:53:30;;;;;;;3.63;3.17;;;27.60;66.10;28.20;101125.00;;;;4967018;28;111768;-66
2023/07/09 06:55:58;;;;;;;3.65;3.13;;;27.80;65.00;28.50;101125.00;;;;4962503;28;92954;-65
2023/07/09 06:58:27;;;;;;;3.80;3.17;;;28.10;62.90;28.70;101123.00;;;;4968513;28;93135;-66
2023/07/09 07:00:54;;;;;;;3.88;3.25;;;28.30;61.30;28.90;101120.00;;;;4964712;28;93071;-66
2023/07/09 07:03:23;;;;;;;4.70;2.95;;;28.50;60.30;29.10;101135.00;;;;4966218;28;93261;-66
2023/07/09 07:05:50;;;;;;;3.40;2.83;;;28.70;59.80;29.40;101125.00;;;;4965953;28;93989;-66
2023/07/09 07:08:18;;;;;;;2.97;2.70;;;29.00;59.30;29.60;101127.00;;;;4963722;28;93160;-67
2023/07/09 07:11:02;;;;;;;3.13;2.83;;;29.20;58.80;30.00;101131.00;;;;4944512;28;92932;-67
2023/07/09 07:13:34;;;;;;;4.38;3.10;;;29.60;58.50;30.30;101129.00;;;;4965053;28;93514;-67
2023/07/09 07:16:09;;;;;;;2.75;2.47;;;29.80;57.60;30.60;101131.00;;;;4951837;28;93023;-67
2023/07/09 07:18:35;;;;;;;7.28;3.08;;;30.10;57.00;30.80;101133.00;;;;4966409;28;115401;-68
2023/07/09 07:21:01;;;;;;;4.03;3.10;;;30.40;56.20;31.10;101131.00;;;;4965925;28;93308;-68
2023/07/09 07:23:28;;;;;;;3.90;2.75;;;30.70;55.50;31.40;101138.00;;;;4967042;28;99455;-68
2023/07/09 07:25:54;;;;;;;4.93;3.10;;;31.00;55.30;31.60;101137.00;;;;4968388;28;109033;-68
2023/07/09 07:28:20;;;;;;;3.65;2.70;;;31.20;53.90;31.90;101123.00;;;;4965235;28;93504;-68
2023/07/09 07:30:46;;;;;;;4.25;2.95;;;31.50;52.00;32.10;101137.00;;;;4970445;28;93954;-69
2023/07/09 07:33:15;;;;;;;3.25;2.95;;;31.70;51.60;32.30;101135.00;;;;4937337;28;92916;-67
2023/07/09 07:35:41;;;;;;;3.55;2.65;;;31.90;51.10;32.50;101136.00;;;;4961035;28;93187;-68
2023/07/09 07:38:07;;;;;;;3.10;2.67;;;32.10;50.50;32.60;101147.00;;;;4965512;28;122742;-68
2023/07/09 07:40:32;;;;;;;3.28;2.38;;;32.30;50.00;32.80;101138.00;;;;4963978;28;120543;-67
2023/07/09 07:42:58;;;;;;;4.75;3.13;;;32.40;49.00;32.90;101139.00;;;;4964242;28;110446;-67
2023/07/09 07:45:24;;;;;;;5.63;2.70;;;32.60;48.40;33.10;101139.00;;;;4963465;28;92893;-68
2023/07/09 07:47:52;;;;;;;3.72;2.80;;;32.70;48.30;33.30;101143.00;;;;4967933;28;92677;-69
2023/07/09 07:50:17;;;;;;;2.47;2.28;;;32.90;48.30;33.40;101139.00;;;;4966936;28;93313;-69
2023/07/09 07:52:43;;;;;;;4.10;2.17;;;33.10;47.80;33.60;101139.00;;;;4971654;28;93129;-70
2023/07/09 07:55:10;;;;;;;4.53;2.92;;;33.20;47.40;33.80;101148.00;;;;4953169;28;108103;-68
2023/07/09 07:57:35;;;;;;;2.92;2.63;;;33.50;47.00;34.00;101142.00;;;;4969847;28;94010;-69
2023/07/09 08:00:02;;;;;;;2.55;1.92;;;33.60;46.70;34.20;101144.00;;;;4963806;28;113048;-69
2023/07/09 08:02:28;;;;;;;2.72;2.40;;;33.80;46.30;34.40;101148.00;;;;4963371;28;92986;-69
2023/07/09 08:04:54;;;;;;;3.33;2.38;;;34.00;45.70;34.60;101153.00;;;;4965880;28;92835;-69
2023/07/09 08:07:20;;;;;;;3.58;2.20;;;34.20;45.10;34.80;101142.00;;;;4965246;28;115854;-69
2023/07/09 08:09:47;;;;;;;3.38;2.15;;;34.40;44.60;35.00;101146.00;;;;4965936;27;93661;-70
2023/07/09 08:12:14;;;;;;;2.47;1.88;;;34.60;43.70;35.20;101140.00;;;;4945874;28;93656;-68
2023/07/09 08:14:42;;;;;;;2.70;2.05;;;34.80;42.60;35.30;101138.00;;;;4962725;28;93122;-71
2023/07/09 08:17:08;;;;;;;2.55;2.30;;;34.90;41.20;35.30;101136.00;;;;4945372;28;93553;-70
2023/07/09 08:19:50;;;;;;;3.50;2.20;;;35.00;39.90;35.40;101138.00;;;;4965221;28;110206;-69
2023/07/09 08:22:16;;;;;;;3.38;2.05;;;35.10;40.30;35.60;101143.00;;;;4963154;28;93607;-69
2023/07/09 08:24:43;;;;;;;2.15;1.73;;;35.20;39.70;35.70;101145.00;;;;4962328;28;92995;-69
2023/07/09 08:27:09;;;;;;;2.45;2.08;;;35.30;39.20;35.80;101144.00;;;;4964563;28;115411;-68
2023/07/09 08:29:35;;;;;;;2.45;1.83;;;35.40;38.40;35.90;101152.00;;;;4961684;28;93198;-69
2023/07/09 08:32:02;;;;;;;1.88;1.77;;;35.50;38.30;36.00;101143.00;;;;4965581;28;93155;-69
2023/07/09 08:34:28;;;;;;;1.92;1.48;;;35.60;37.00;36.00;101141.00;;;;4966382;28;93265;-69
2023/07/09 08:36:56;;;;;;;2.63;1.70;;;35.60;36.70;36.00;101137.00;;;;4968449;28;121615;-70
2023/07/09 08:39:22;;;;;;;2.67;2.33;;;35.70;36.40;36.10;101131.00;;;;4962572;28;120187;-71
2023/07/09 08:41:59;;;;;;;1.52;1.38;;;35.80;36.30;36.20;101134.00;;;;4962042;28;110745;-70
2023/07/09 08:44:34;;;;;;;1.60;1.25;;;35.80;35.20;36.30;101134.00;;;;4964388;28;94066;-69
2023/07/09 08:47:52;;;;;;;2.47;1.90;;;35.90;35.20;36.30;101138.00;;;;4963301;28;93006;-71
2023/07/09 08:50:43;;;;;;;1.58;1.35;;;36.00;34.10;36.20;101131.00;;;;4943093;28;94694;-70
2023/07/09 08:53:36;;;;;;;1.45;1.25;;;35.90;32.60;36.20;101136.00;;;;4950522;28;93187;-69
2023/07/09 08:56:02;;;;;;;2.50;1.50;;;35.90;31.90;36.20;101129.00;;;;4937966;28;93184;-68
2023/07/09 08:58:31;;;;;;;3.90;1.85;;;35.90;32.30;36.30;101125.00;;;;4950457;28;113248;-69
2023/07/09 09:01:05;;;;;;;2.60;1.73;;;35.90;32.90;36.40;101135.00;;;;4962712;28;93115;-69
2023/07/09 09:03:44;;;;;;;2.40;2.20;;;36.00;32.70;36.50;101128.00;;;;4950335;28;92544;-69
2023/07/09 09:06:37;;;;;;;6.20;2.05;;;36.00;32.10;36.50;101134.00;;;;4958882;28;93164;-69
2023/07/09 09:09:22;;;;;;;2.72;1.70;;;36.10;32.40;36.60;101131.00;;;;4935640;28;122999;-69
2023/07/09 09:11:59;;;;;;;2.55;1.40;;;36.20;31.90;36.60;101129.00;;;;4956350;28;109083;-69
2023/07/09 09:14:38;;;;;;;1.67;1.35;;;36.20;31.30;36.70;101131.00;;;;4947856;28;94971;-71
2023/07/09 09:17:18;;;;;;;1.85;1.67;;;36.30;31.90;36.70;101127.00;;;;4948013;28;93632;-71
2023/07/09 09:19:55;;;;;;;3.08;1.83;;;36.30;31.20;36.80;101125.00;;;;4961053;28;116973;-70
2023/07/09 09:22:27;;;;;;;2.40;1.63;;;36.30;31.60;36.90;101133.00;;;;4960521;28;111888;-70
2023/07/09 09:25:04;;;;;;;2.80;1.92;;;36.40;31.40;37.00;101134.00;;;;4946677;28;93201;-70
2023/07/09 09:27:30;;;;;;;1.75;1.50;;;36.50;30.70;37.10;101130.00;;;;4944421;28;97640;-71
2023/07/09 09:29:55;;;;;;;2.33;1.60;;;36.60;30.30;37.10;101133.00;;;;4964523;28;94617;-69
2023/07/09 09:32:29;;;;;;;1.45;1.35;;;36.60;30.00;37.20;101129.00;;;;4961232;28;121992;-70
2023/07/09 09:34:55;;;;;;;1.67;1.30;;;36.70;30.30;37.30;101129.00;;;;4943573;28;96982;-70
2023/07/09 09:37:31;;;;;;;2.28;1.63;;;36.80;30.30;37.40;101129.00;;;;4946305;28;93944;-71
2023/07/09 09:39:59;;;;;;;1.25;0.98;;;36.90;30.00;37.50;101129.00;;;;4966719;28;93856;-70
2023/07/09 09:42:25;;;;;;;2.65;1.55;;;36.90;30.20;37.60;101129.00;;;;4961765;28;94383;-71
2023/07/09 09:44:54;;;;;;;3.00;1.35;;;37.00;30.00;37.60;101126.00;;;;4961746;28;111250;-69
2023/07/09 09:47:21;;;;;;;2.95;1.48;;;37.10;29.60;37.60;101129.00;;;;4966233;28;92934;-72
2023/07/09 09:49:47;;;;;;;2.20;1.25;;;37.10;29.50;37.70;101129.00;;;;4962461;28;113087;-70
2023/07/09 09:52:17;;;;;;;1.38;1.27;;;37.20;29.70;37.80;101126.00;;;;4949981;28;121494;-72
2023/07/09 09:54:56;;;;;;;2.35;1.38;;;37.30;29.90;38.00;101128.00;;;;4964277;28;92516;-71
2023/07/09 09:57:24;;;;;;;1.73;1.63;;;37.50;29.70;38.10;101132.00;;;;4947679;28;93388;-69
2023/07/09 09:59:50;;;;;;;1.55;1.25;;;37.50;28.80;38.00;101124.00;;;;4931736;28;94839;-73
2023/07/09 10:02:20;;;;;;;2.90;1.90;;;37.40;28.80;38.10;101128.00;;;;4944125;28;122083;-69
2023/07/09 10:04:47;;;;;;;1.35;1.23;;;37.50;29.00;38.20;101116.00;;;;4961921;28;93054;-70
2023/07/09 10:07:27;;;;;;;3.78;1.70;;;37.60;29.10;38.30;101114.00;;;;4963232;28;93203;-69
2023/07/09 10:09:55;;;;;;;1.67;1.30;;;37.70;29.00;38.50;101128.00;;;;4948282;28;110890;-69
2023/07/09 10:12:40;;;;;;;2.58;1.88;;;37.90;28.70;38.60;101124.00;;;;4962881;28;93610;-69
2023/07/09 10:15:40;;;;;;;2.78;1.55;;;38.00;28.50;38.80;101132.00;;;;4947953;28;93074;-70
2023/07/09 10:18:47;;;;;;;4.20;1.50;;;38.10;28.70;39.10;101125.00;;;;4945066;28;93304;-70
2023/07/09 10:21:34;;;;;;;2.45;1.65;;;38.40;28.50;39.20;101123.00;;;;4966390;28;112656;-70
2023/07/09 10:24:27;;;;;;;1.52;1.40;;;38.50;28.40;39.50;101130.00;;;;4948529;28;93198;-70
2023/07/09 10:27:03;;;;;;;2.92;1.83;;;38.70;27.50;39.70;101123.00;;;;4966832;28;94474;-70
2023/07/09 10:30:08;;;;;;;2.05;1.42;;;38.90;27.90;40.00;101121.00;;;;4947173;28;96667;-70
2023/07/09 10:33:09;;;;;;;1.30;1.20;;;39.20;27.90;40.20;101120.00;;;;4950101;28;94542;-72
2023/07/09 10:36:41;;;;;;;1.98;1.60;;;39.40;27.70;40.50;101122.00;;;;4949069;28;93445;-70
2023/07/09 10:39:15;;;;;;;1.92;1.73;;;39.70;26.90;40.70;101113.00;;;;4960010;28;92893;-71
2023/07/09 10:41:42;;;;;;;1.77;1.20;;;39.80;26.90;40.90;101116.00;;;;4956320;28;98912;-69
2023/07/09 10:44:16;;;;;;;2.33;1.20;;;40.00;27.00;41.00;101120.00;;;;4964174;28;115473;-68
2023/07/09 10:46:48;;;;;;;2.30;1.30;;;40.10;26.90;41.20;101115.00;;;;4962312;28;116076;-69
2023/07/09 10:49:18;;;;;;;5.70;1.38;;;40.30;27.00;41.50;101115.00;;;;4963892;28;105842;-70
2023/07/09 10:51:51;;;;;;;1.75;1.17;;;40.50;27.00;41.80;101115.00;;;;4957164;28;108407;-70
2023/07/09 10:54:54;;;;;;;5.72;4.53;;;40.80;27.00;42.00;101119.00;;;;4948381;28;112982;-69
2023/07/09 10:57:47;;;;;;;1.30;1.20;;;41.00;26.30;41.90;101112.00;;;;4932404;28;94429;-69